Dades de l'estació automàtica Vilanova i la Geltrú
Resum diari
21:30 TU| Temperatura mitjana | 17.1 °C | |
|---|---|---|
| Temperatura màxima | 21.3 °C | 9:12 TU |
| Temperatura mínima | 12.3 °C | 21:59 TU |
| Humitat relativa mitjana | 83% | |
| Precipitació acumulada | 0.9 mm | |
| Ratxa màxima del vent (10 m) | 24.5 km/h - 228º | 12:56 TU |
| Pressió atmosfèrica mitjana | 1013.3 hPa | |
| Irradiació solar global | 12.6 MJ/m2 | |
El tram horari està expressat en Temps Universal (TU). Cal sumar una hora en horari d'hivern i dues en horari d'estiu per passar a l'hora oficial.
Vilanova i la Geltrú
| Municipi | Vilanova i la Geltrú |
|---|---|
| Comarca | Garraf |
| Altitud | 32 m |
| Data alta | 13.04.2023 |
| Estat actual | Operativa |
| Període TU |
TM °C |
TX °C |
TN °C |
HRM % |
PPT mm |
VVM (10 m) km/h |
DVM (10 m) graus |
VVX (10 m) km/h |
PM hPa |
RS W/m2 |
|---|---|---|---|---|---|---|---|---|---|---|
| 00:00 - 00:30 | 15.4 | 15.4 | 15.3 | 93 | 0.0 | 5.4 | 5 | 10.4 | 1014.9 | 0 |
| 00:30 - 01:00 | 15.4 | 15.4 | 15.3 | 92 | 0.0 | 5.0 | 358 | 9.0 | 1014.8 | 0 |
| 01:00 - 01:30 | 15.2 | 15.4 | 15.1 | 92 | 0.0 | 7.2 | 19 | 12.6 | 1014.5 | 0 |
| 01:30 - 02:00 | 14.9 | 15.1 | 14.8 | 93 | 0.0 | 5.8 | 23 | 10.1 | 1014.4 | 0 |
| 02:00 - 02:30 | 14.7 | 14.8 | 14.7 | 94 | 0.0 | 5.0 | 28 | 8.6 | 1014.1 | 0 |
| 02:30 - 03:00 | 14.5 | 14.6 | 14.4 | 94 | 0.0 | 3.6 | 57 | 8.6 | 1014.2 | 0 |
| 03:00 - 03:30 | 14.2 | 14.4 | 14.0 | 96 | 0.0 | 2.2 | 91 | 5.4 | 1014.2 | 0 |
| 03:30 - 04:00 | 14.3 | 14.5 | 14.1 | 96 | 0.0 | 2.9 | 11 | 5.8 | 1014.1 | 0 |
| 04:00 - 04:30 | 14.7 | 15.0 | 14.5 | 96 | 0.0 | 4.0 | 8 | 6.8 | 1014.0 | 0 |
| 04:30 - 05:00 | 15.0 | 15.1 | 14.9 | 93 | 0.0 | 5.0 | 19 | 8.6 | 1013.8 | 2 |
| 05:00 - 05:30 | 15.1 | 15.2 | 14.9 | 92 | 0.0 | 3.2 | 33 | 9.0 | 1013.9 | 21 |
| 05:30 - 06:00 | 15.4 | 15.8 | 15.2 | 92 | 0.0 | 1.8 | 39 | 4.7 | 1013.8 | 61 |
| 06:00 - 06:30 | 16.8 | 17.9 | 15.9 | 85 | 0.0 | 2.9 | 56 | 5.4 | 1013.9 | 174 |
| 06:30 - 07:00 | 18.7 | 19.0 | 18.1 | 76 | 0.0 | 3.2 | 60 | 9.0 | 1013.9 | 292 |
| 07:00 - 07:30 | 19.3 | 19.6 | 18.6 | 74 | 0.0 | 4.7 | 76 | 9.0 | 1013.7 | 333 |
| 07:30 - 08:00 | 19.2 | 19.4 | 19.0 | 74 | 0.0 | 3.2 | 121 | 7.6 | 1013.6 | 216 |
| 08:00 - 08:30 | 18.8 | 19.3 | 18.5 | 78 | 0.0 | 6.1 | 171 | 11.2 | 1013.7 | 194 |
| 08:30 - 09:00 | 19.3 | 20.7 | 18.6 | 77 | 0.0 | 6.5 | 169 | 11.9 | 1013.5 | 423 |
| 09:00 - 09:30 | 21.0 | 21.3 | 20.6 | 71 | 0.0 | 8.6 | 164 | 14.8 | 1013.3 | 650 |
| 09:30 - 10:00 | 20.0 | 20.5 | 19.5 | 77 | 0.0 | 14.0 | 161 | 23.8 | 1013.4 | 507 |
| 10:00 - 10:30 | 19.5 | 20.0 | 18.9 | 79 | 0.0 | 10.8 | 160 | 21.2 | 1013.5 | 358 |
| 10:30 - 11:00 | 18.6 | 19.4 | 18.3 | 83 | 0.0 | 6.1 | 174 | 14.8 | 1013.2 | 167 |
| 11:00 - 11:30 | 18.7 | 19.0 | 18.3 | 84 | 0.0 | 11.9 | 173 | 19.8 | 1013.3 | 305 |
| 11:30 - 12:00 | 18.6 | 19.3 | 18.1 | 81 | 0.0 | 13.0 | 187 | 21.6 | 1013.3 | 349 |
| 12:00 - 12:30 | 18.8 | 19.8 | 18.4 | 77 | 0.0 | 11.5 | 207 | 22.3 | 1013.1 | 379 |
| 12:30 - 13:00 | 19.7 | 20.6 | 19.1 | 65 | 0.0 | 14.8 | 223 | 24.5 | 1013.1 | 598 |
| 13:00 - 13:30 | 18.3 | 19.0 | 17.7 | 71 | 0.0 | 9.4 | 237 | 21.2 | 1012.8 | 186 |
| 13:30 - 14:00 | 18.4 | 19.0 | 17.7 | 70 | 0.1 | 7.6 | 238 | 15.5 | 1012.6 | 243 |
| 14:00 - 14:30 | 17.8 | 18.6 | 17.3 | 73 | 0.0 | 6.8 | 221 | 11.5 | 1012.6 | 125 |
| 14:30 - 15:00 | 18.1 | 18.4 | 17.5 | 75 | 0.0 | 3.6 | 233 | 8.3 | 1012.3 | 166 |
| 15:00 - 15:30 | 18.6 | 19.1 | 18.2 | 71 | 0.0 | 4.3 | 223 | 12.6 | 1012.2 | 233 |
| 15:30 - 16:00 | 19.4 | 20.1 | 18.9 | 70 | 0.0 | 6.1 | 171 | 12.2 | 1011.9 | 335 |
| 16:00 - 16:30 | 19.5 | 19.8 | 18.8 | 71 | 0.0 | 6.1 | 178 | 12.2 | 1011.7 | 324 |
| 16:30 - 17:00 | 18.4 | 18.9 | 17.7 | 77 | 0.0 | 7.9 | 176 | 13.0 | 1011.8 | 156 |
| 17:00 - 17:30 | 17.9 | 18.4 | 17.5 | 81 | 0.0 | 7.2 | 197 | 13.0 | 1011.8 | 144 |
| 17:30 - 18:00 | 17.6 | 18.0 | 17.2 | 83 | 0.0 | 7.2 | 189 | 12.6 | 1011.7 | 72 |
| 18:00 - 18:30 | 16.9 | 17.1 | 16.8 | 87 | 0.0 | 8.3 | 223 | 13.3 | 1012.2 | 7 |
| 18:30 - 19:00 | 16.9 | 17.0 | 16.8 | 87 | 0.0 | 7.9 | 239 | 13.7 | 1012.5 | 2 |
| 19:00 - 19:30 | 16.8 | 17.3 | 15.9 | 87 | 0.6 | 10.8 | 268 | 20.2 | 1012.9 | 0 |
| 19:30 - 20:00 | 15.5 | 15.8 | 15.2 | 90 | 0.2 | 6.8 | 327 | 18.7 | 1012.8 | 0 |
| 20:00 - 20:30 | 14.9 | 15.2 | 14.6 | 91 | 0.0 | 4.0 | 36 | 13.0 | 1012.9 | 0 |
| 20:30 - 21:00 | 14.4 | 14.7 | 13.8 | 88 | 0.0 | 5.0 | 314 | 14.4 | 1013.1 | 0 |
| 21:00 - 21:30 | 13.7 | 14.2 | 13.3 | 91 | 0.0 | 6.5 | 303 | 10.4 | 1013.3 | 0 |
| 21:30 - 22:00 | 12.9 | 13.4 | 12.3 | 94 | 0.0 | 5.8 | 2 | 10.1 | 1013.2 | 0 |
Les dades en taronja només han passat un control de qualitat automàtic. Resta pendent la seva validació definitiva.